Chrisanthi — SX7108 — position and weather

sailwx.info

Track history (hours):
 
Tides and Currents Weather Stations Pressure Air Temp Water Temp Dewpoint Dewpoint Depression Visibility Wind Speed Wind Dir Waves Ship Positions

Chrisanthi

Last reported at 2015-Aug-30 07:33 UTC. Time now 2015-Aug-30 07:59 UTC.
Position N 36°25' E 025°24'.

Length 56 m; draft 3.8 m.

Type: Tanker. MMSI: 237009100.

Date/timePositionNaut miles runAvg speedWind from/ knotsBaromVisibWave heightAir tempDewpointWater temp
2015-Aug-30 07:33N 36°25' E 025°24'107 9.7
2015-Aug-29 20:33N 37°32' E 023°39'1110.5
2015-Aug-29 19:33N 37°38' E 023°29'10 9.8
2015-Aug-29 18:33N 37°42' E 023°17'1410.2
2015-Aug-29 17:11N 37°53' E 023°07'2 0.2
2015-Aug-29 05:16N 37°55' E 023°06'0 0.0
2015-Aug-29 02:28N 37°55' E 023°06'0 0.0
2015-Aug-29 00:33N 37°55' E 023°06'0 0.0
2015-Aug-28 23:32N 37°55' E 023°06'0 0.0
2015-Aug-28 22:12N 37°55' E 023°06'0 0.0
2015-Aug-28 21:30N 37°55' E 023°06'2 1.9
2015-Aug-28 20:26N 37°54' E 023°08'1010.8
2015-Aug-28 19:33N 37°52' E 023°20'1110.6
2015-Aug-28 18:33N 37°50' E 023°33'9 9.1
2015-Aug-28 17:33N 37°45' E 023°43'54 2.7
2015-Aug-27 21:33N 37°41' E 024°51'1010.3
2015-Aug-27 20:33N 37°33' E 024°58'10 9.8
2015-Aug-27 19:33N 37°25' E 025°06'1010.1
2015-Aug-27 18:33N 37°17' E 025°13'1010.2
2015-Aug-27 17:33N 37°08' E 025°20'3 2.5
2015-Aug-27 16:33N 37°06' E 025°22'1 0.6
2015-Aug-27 15:33N 37°06' E 025°22'0 0.0
2015-Aug-27 14:33N 37°06' E 025°22'1 0.6
2015-Aug-27 13:33N 37°06' E 025°22'4 3.7
2015-Aug-27 12:33N 37°09' E 025°19'8 8.1
2015-Aug-27 11:34N 37°08' E 025°10'3 0.6
2015-Aug-27 07:23N 37°05' E 025°09'2 0.9
2015-Aug-27 05:33N 37°07' E 025°08'8 8.4
2015-Aug-27 04:33N 37°08' E 025°18'17 8.1
2015-Aug-27 02:28N 36°55' E 025°32'1 0.1
2015-Aug-26 20:32N 36°55' E 025°33'27 5.4
2015-Aug-26 15:30N 36°30' E 025°21'8 8.1
2015-Aug-26 14:33N 36°23' E 025°26'0 0.0
2015-Aug-26 13:33N 36°23' E 025°26'0 0.0
2015-Aug-26 12:33N 36°23' E 025°26'0 0.0
2015-Aug-26 11:32N 36°23' E 025°26'7 6.9
2015-Aug-26 10:27N 36°31' E 025°25'910.4
2015-Aug-26 09:33N 36°34' E 025°36'1110.5
2015-Aug-26 08:33N 36°38' E 025°48'8 0.3
2015-Aug-25 03:22N 36°45' E 025°47'810.2
2015-Aug-25 02:33N 36°50' E 025°38'6 3.2
2015-Aug-25 00:33N 36°56' E 025°36'12 8.5
2015-Aug-24 23:10N 36°58' E 025°21'610.4
2015-Aug-24 22:33N 37°04' E 025°19'3 3.5
2015-Aug-24 21:33N 37°06' E 025°22'0 0.4
2015-Aug-24 20:33N 37°06' E 025°22'0 0.4
2015-Aug-24 19:33N 37°06' E 025°22'0 0.2
2015-Aug-24 18:33N 37°06' E 025°22'0 0.2
2015-Aug-24 17:33N 37°06' E 025°22'6 6.4
2015-Aug-24 16:33N 37°10' E 025°16'8 7.9
2015-Aug-24 15:33N 37°05' E 025°08'1 0.2
2015-Aug-24 12:07N 37°05' E 025°09'5 9.2
2015-Aug-24 11:33N 37°09' E 025°04'10 9.9
2015-Aug-24 10:33N 37°17' E 024°56'1010.3
2015-Aug-24 09:33N 37°25' E 024°49'48 9.0
2015-Aug-24 04:13N 37°38' E 023°51'710.2
2015-Aug-24 03:33N 37°40' E 023°43'1010.1
2015-Aug-24 02:33N 37°49' E 023°36'1010.2
2015-Aug-24 01:33N 37°51' E 023°23'1010.2
2015-Aug-24 00:33N 37°54' E 023°11'2 0.2
2015-Aug-23 15:21N 37°53' E 023°13'911.2
2015-Aug-23 14:33N 37°52' E 023°24'1111.0
2015-Aug-23 13:33N 37°51' E 023°38'1110.5
2015-Aug-23 12:32N 37°42' E 023°45'5310.6
2015-Aug-23 07:33N 37°22' E 024°47'1110.9
2015-Aug-23 06:33N 37°17' E 024°59'1111.0
2015-Aug-23 05:33N 37°12' E 025°11'1010.3
2015-Aug-23 04:33N 37°06' E 025°22'0 0.1
2015-Aug-23 03:33N 37°06' E 025°22'0 0.0
2015-Aug-23 02:33N 37°06' E 025°22'0 0.0
2015-Aug-23 01:33N 37°06' E 025°22'3 3.4
2015-Aug-23 00:33N 37°04' E 025°19'2210.0
2015-Aug-22 22:19N 36°43' E 025°27'810.1
2015-Aug-22 21:33N 36°36' E 025°32'1010.1
2015-Aug-22 20:33N 36°28' E 025°39'9 9.1
2015-Aug-22 19:32N 36°21' E 025°46'0 0.0
2015-Aug-22 18:33N 36°21' E 025°46'0 0.0
2015-Aug-22 17:33N 36°21' E 025°46'7 7.1
2015-Aug-22 16:33N 36°24' E 025°39'1110.5
2015-Aug-22 15:33N 36°31' E 025°29'7 1.3
2015-Aug-22 10:06N 36°32' E 025°20'610.2
2015-Aug-22 09:32N 36°27' E 025°22'5 4.7
2015-Aug-22 08:31N 36°23' E 025°26'0 0.0
2015-Aug-22 07:32N 36°23' E 025°26'0 0.0
2015-Aug-22 06:32N 36°23' E 025°26'0 0.0
2015-Aug-22 05:32N 36°23' E 025°26'0 0.0
2015-Aug-22 04:33N 36°23' E 025°26'7 7.0
2015-Aug-22 03:32N 36°30' E 025°26'1010.3
2015-Aug-22 02:33N 36°32' E 025°38'1010.1
2015-Aug-22 01:32N 36°34' E 025°51'74 3.7
2015-Aug-21 05:32N 36°32' E 027°23'25 8.4
2015-Aug-21 02:33N 36°55' E 027°11'  
Track history (hours):
 
Tides and Currents Weather Stations Pressure Air Temp Water Temp Dewpoint Dewpoint Depression Visibility Wind Speed Wind Dir Waves Ship Positions

Chrisanthi

Last reported at 2015-Aug-30 07:33 UTC. Time now 2015-Aug-30 07:59 UTC.
Position N 36°25' E 025°24'.

Length 56 m; draft 3.8 m.

Type: Tanker. MMSI: 237009100.

Date/timePositionNaut miles runAvg speedWind from/ knotsBaromVisibWave heightAir tempDewpointWater temp
2015-Aug-30 07:33N 36°25' E 025°24'107 9.7
2015-Aug-29 20:33N 37°32' E 023°39'1110.5
2015-Aug-29 19:33N 37°38' E 023°29'10 9.8
2015-Aug-29 18:33N 37°42' E 023°17'1410.2
2015-Aug-29 17:11N 37°53' E 023°07'2 0.2
2015-Aug-29 05:16N 37°55' E 023°06'0 0.0
2015-Aug-29 02:28N 37°55' E 023°06'0 0.0
2015-Aug-29 00:33N 37°55' E 023°06'0 0.0
2015-Aug-28 23:32N 37°55' E 023°06'0 0.0
2015-Aug-28 22:12N 37°55' E 023°06'0 0.0
2015-Aug-28 21:30N 37°55' E 023°06'2 1.9
2015-Aug-28 20:26N 37°54' E 023°08'1010.8
2015-Aug-28 19:33N 37°52' E 023°20'1110.6
2015-Aug-28 18:33N 37°50' E 023°33'9 9.1
2015-Aug-28 17:33N 37°45' E 023°43'54 2.7
2015-Aug-27 21:33N 37°41' E 024°51'1010.3
2015-Aug-27 20:33N 37°33' E 024°58'10 9.8
2015-Aug-27 19:33N 37°25' E 025°06'1010.1
2015-Aug-27 18:33N 37°17' E 025°13'1010.2
2015-Aug-27 17:33N 37°08' E 025°20'3 2.5
2015-Aug-27 16:33N 37°06' E 025°22'1 0.6
2015-Aug-27 15:33N 37°06' E 025°22'0 0.0
2015-Aug-27 14:33N 37°06' E 025°22'1 0.6
2015-Aug-27 13:33N 37°06' E 025°22'4 3.7
2015-Aug-27 12:33N 37°09' E 025°19'8 8.1
2015-Aug-27 11:34N 37°08' E 025°10'3 0.6
2015-Aug-27 07:23N 37°05' E 025°09'2 0.9
2015-Aug-27 05:33N 37°07' E 025°08'8 8.4
2015-Aug-27 04:33N 37°08' E 025°18'17 8.1
2015-Aug-27 02:28N 36°55' E 025°32'1 0.1
2015-Aug-26 20:32N 36°55' E 025°33'27 5.4
2015-Aug-26 15:30N 36°30' E 025°21'8 8.1
2015-Aug-26 14:33N 36°23' E 025°26'0 0.0
2015-Aug-26 13:33N 36°23' E 025°26'0 0.0
2015-Aug-26 12:33N 36°23' E 025°26'0 0.0
2015-Aug-26 11:32N 36°23' E 025°26'7 6.9
2015-Aug-26 10:27N 36°31' E 025°25'910.4
2015-Aug-26 09:33N 36°34' E 025°36'1110.5
2015-Aug-26 08:33N 36°38' E 025°48'8 0.3
2015-Aug-25 03:22N 36°45' E 025°47'810.2
2015-Aug-25 02:33N 36°50' E 025°38'6 3.2
2015-Aug-25 00:33N 36°56' E 025°36'12 8.5
2015-Aug-24 23:10N 36°58' E 025°21'610.4
2015-Aug-24 22:33N 37°04' E 025°19'3 3.5
2015-Aug-24 21:33N 37°06' E 025°22'0 0.4
2015-Aug-24 20:33N 37°06' E 025°22'0 0.4
2015-Aug-24 19:33N 37°06' E 025°22'0 0.2
2015-Aug-24 18:33N 37°06' E 025°22'0 0.2
2015-Aug-24 17:33N 37°06' E 025°22'6 6.4
2015-Aug-24 16:33N 37°10' E 025°16'8 7.9
2015-Aug-24 15:33N 37°05' E 025°08'1 0.2
2015-Aug-24 12:07N 37°05' E 025°09'5 9.2
2015-Aug-24 11:33N 37°09' E 025°04'10 9.9
2015-Aug-24 10:33N 37°17' E 024°56'1010.3
2015-Aug-24 09:33N 37°25' E 024°49'48 9.0
2015-Aug-24 04:13N 37°38' E 023°51'710.2
2015-Aug-24 03:33N 37°40' E 023°43'1010.1
2015-Aug-24 02:33N 37°49' E 023°36'1010.2
2015-Aug-24 01:33N 37°51' E 023°23'1010.2
2015-Aug-24 00:33N 37°54' E 023°11'2 0.2
2015-Aug-23 15:21N 37°53' E 023°13'911.2
2015-Aug-23 14:33N 37°52' E 023°24'1111.0
2015-Aug-23 13:33N 37°51' E 023°38'1110.5
2015-Aug-23 12:32N 37°42' E 023°45'5310.6
2015-Aug-23 07:33N 37°22' E 024°47'1110.9
2015-Aug-23 06:33N 37°17' E 024°59'1111.0
2015-Aug-23 05:33N 37°12' E 025°11'1010.3
2015-Aug-23 04:33N 37°06' E 025°22'0 0.1
2015-Aug-23 03:33N 37°06' E 025°22'0 0.0
2015-Aug-23 02:33N 37°06' E 025°22'0 0.0
2015-Aug-23 01:33N 37°06' E 025°22'3 3.4
2015-Aug-23 00:33N 37°04' E 025°19'2210.0
2015-Aug-22 22:19N 36°43' E 025°27'810.1
2015-Aug-22 21:33N 36°36' E 025°32'1010.1
2015-Aug-22 20:33N 36°28' E 025°39'9 9.1
2015-Aug-22 19:32N 36°21' E 025°46'0 0.0
2015-Aug-22 18:33N 36°21' E 025°46'0 0.0
2015-Aug-22 17:33N 36°21' E 025°46'7 7.1
2015-Aug-22 16:33N 36°24' E 025°39'1110.5
2015-Aug-22 15:33N 36°31' E 025°29'7 1.3
2015-Aug-22 10:06N 36°32' E 025°20'610.2
2015-Aug-22 09:32N 36°27' E 025°22'5 4.7
2015-Aug-22 08:31N 36°23' E 025°26'0 0.0
2015-Aug-22 07:32N 36°23' E 025°26'0 0.0
2015-Aug-22 06:32N 36°23' E 025°26'0 0.0
2015-Aug-22 05:32N 36°23' E 025°26'0 0.0
2015-Aug-22 04:33N 36°23' E 025°26'7 7.0
2015-Aug-22 03:32N 36°30' E 025°26'1010.3
2015-Aug-22 02:33N 36°32' E 025°38'1010.1
2015-Aug-22 01:32N 36°34' E 025°51'74 3.7
2015-Aug-21 05:32N 36°32' E 027°23'25 8.4
2015-Aug-21 02:33N 36°55' E 027°11'  

Dump ship's entire track history